createdAt,value
2023-01-13T00:02:30.427Z,998.52
2023-01-13T00:07:31.153Z,998.57
2023-01-13T00:12:31.867Z,998.58
2023-01-13T00:17:32.611Z,998.59
2023-01-13T00:22:33.297Z,998.65
2023-01-13T00:27:34.059Z,998.62
2023-01-13T00:32:34.770Z,998.62
2023-01-13T00:37:35.513Z,998.50
2023-01-13T00:42:36.214Z,998.49
2023-01-13T00:47:36.940Z,998.55
2023-01-13T00:52:37.692Z,998.49
2023-01-13T00:57:38.370Z,998.48
2023-01-13T01:02:39.119Z,998.48
2023-01-13T01:07:39.799Z,998.53
2023-01-13T01:12:40.557Z,998.49
2023-01-13T01:17:41.267Z,998.54
2023-01-13T01:22:41.981Z,998.59
2023-01-13T01:27:42.735Z,998.62
2023-01-13T01:32:43.430Z,998.55
2023-01-13T01:37:44.142Z,998.52
2023-01-13T01:42:44.876Z,998.43
2023-01-13T01:47:45.628Z,998.44
2023-01-13T01:52:46.334Z,998.45
2023-01-13T01:57:47.093Z,998.38
2023-01-13T02:02:47.818Z,998.37
2023-01-13T02:07:48.513Z,998.36
2023-01-13T02:12:49.210Z,998.29
2023-01-13T02:17:49.923Z,998.25
2023-01-13T02:22:50.636Z,998.22
2023-01-13T02:27:51.434Z,998.23
2023-01-13T02:32:52.305Z,998.22
2023-01-13T02:37:53.031Z,998.19
2023-01-13T02:42:53.751Z,998.18
2023-01-13T02:47:54.446Z,998.13
2023-01-13T02:52:55.161Z,998.12
2023-01-13T02:57:55.910Z,998.07
2023-01-13T03:02:56.699Z,998.09
2023-01-13T03:07:57.558Z,998.06
2023-01-13T03:12:58.300Z,998.08
2023-01-13T03:17:59.039Z,997.86
2023-01-13T03:22:59.732Z,997.83
2023-01-13T03:28:00.439Z,997.84
2023-01-13T03:33:01.157Z,997.93
2023-01-13T03:38:01.893Z,997.95
2023-01-13T03:43:02.582Z,997.93
2023-01-13T03:48:03.298Z,997.96
2023-01-13T03:53:04.026Z,997.85
2023-01-13T03:58:04.755Z,997.91
2023-01-13T04:03:12.436Z,997.91
2023-01-13T04:08:06.123Z,997.88
2023-01-13T04:13:06.795Z,997.77
2023-01-13T04:18:07.453Z,997.79
2023-01-13T04:23:08.242Z,997.75
2023-01-13T04:28:08.961Z,997.83
2023-01-13T04:33:09.756Z,997.87
2023-01-13T04:38:10.414Z,997.89
2023-01-13T04:43:11.147Z,997.88
2023-01-13T04:48:11.885Z,997.87
2023-01-13T04:53:12.583Z,997.94
2023-01-13T04:58:13.338Z,997.91
2023-01-13T05:03:14.184Z,997.98
2023-01-13T05:08:14.873Z,998.03
2023-01-13T05:13:15.602Z,998.10
2023-01-13T05:18:16.328Z,998.23
2023-01-13T05:23:17.030Z,998.26
2023-01-13T05:28:17.762Z,998.33
2023-01-13T05:33:18.486Z,998.26
2023-01-13T05:38:19.218Z,998.39
2023-01-13T05:43:19.910Z,998.47
2023-01-13T05:48:20.627Z,998.48
2023-01-13T05:53:21.346Z,998.56
2023-01-13T05:58:22.190Z,998.67
2023-01-13T06:03:22.895Z,998.69
2023-01-13T06:08:23.623Z,998.72
2023-01-13T06:13:24.351Z,998.55
2023-01-13T06:18:25.101Z,998.50
2023-01-13T06:23:25.826Z,998.74
2023-01-13T06:28:26.528Z,998.67
2023-01-13T06:33:27.314Z,998.60
2023-01-13T06:38:27.981Z,998.54
2023-01-13T06:43:28.654Z,998.56
2023-01-13T06:48:29.344Z,998.49
2023-01-13T06:53:30.025Z,998.32
2023-01-13T06:58:30.692Z,998.16
2023-01-13T07:03:31.381Z,998.40
2023-01-13T07:08:32.055Z,998.41
2023-01-13T07:13:32.708Z,998.51
2023-01-13T07:18:33.419Z,998.44
2023-01-13T07:23:34.047Z,998.28
2023-01-13T07:28:34.709Z,998.09
2023-01-13T07:33:35.388Z,998.44
2023-01-13T07:38:36.073Z,998.35
2023-01-13T07:43:36.751Z,998.46
2023-01-13T07:48:37.609Z,998.45
2023-01-13T07:53:38.294Z,998.51
2023-01-13T07:58:38.942Z,998.55
2023-01-13T08:03:39.615Z,998.48
2023-01-13T08:08:40.299Z,998.56
2023-01-13T08:13:40.943Z,998.87
2023-01-13T08:18:41.613Z,998.85
2023-01-13T08:23:42.345Z,999.00
2023-01-13T08:28:42.965Z,999.02
2023-01-13T08:33:43.628Z,998.96
2023-01-13T08:38:44.301Z,998.94
2023-01-13T08:43:44.992Z,998.88
2023-01-13T08:48:45.767Z,998.84
2023-01-13T08:53:46.416Z,999.08
2023-01-13T08:58:47.084Z,999.30
2023-01-13T09:03:47.792Z,999.24
2023-01-13T09:08:48.523Z,999.11
2023-01-13T09:13:49.220Z,998.72
2023-01-13T09:18:49.880Z,997.68
2023-01-13T09:23:50.554Z,999.03
2023-01-13T09:28:51.201Z,999.14
2023-01-13T09:33:51.876Z,999.08
2023-01-13T09:38:52.562Z,998.97
2023-01-13T09:43:53.204Z,998.95
2023-01-13T09:48:53.869Z,998.76
2023-01-13T09:53:54.541Z,998.82
2023-01-13T09:58:55.223Z,999.08
2023-01-13T10:04:03.905Z,999.08
2023-01-13T10:08:56.529Z,999.06
2023-01-13T10:13:57.201Z,999.14
2023-01-13T10:18:57.896Z,999.21
2023-01-13T10:23:58.650Z,999.17
2023-01-13T10:28:59.287Z,999.10
2023-01-13T10:34:00.001Z,999.12
2023-01-13T10:39:00.690Z,999.16
2023-01-13T10:44:01.329Z,999.10
2023-01-13T10:49:01.996Z,999.00
2023-01-13T10:54:02.726Z,999.13
2023-01-13T10:59:03.426Z,999.11
2023-01-13T11:04:04.107Z,999.02
2023-01-13T11:09:04.969Z,999.06
2023-01-13T11:14:07.759Z,999.12
2023-01-13T11:19:06.271Z,999.13
2023-01-13T11:24:06.979Z,999.05
2023-01-13T11:29:10.840Z,999.12
2023-01-13T11:34:08.477Z,999.14
2023-01-13T11:39:09.146Z,999.05
2023-01-13T11:44:09.799Z,999.07
2023-01-13T11:49:10.510Z,999.01
2023-01-13T11:54:11.165Z,998.99
2023-01-13T11:59:11.875Z,999.04
2023-01-13T12:04:12.534Z,999.00
2023-01-13T12:09:13.217Z,999.10
2023-01-13T12:14:13.888Z,999.01
2023-01-13T12:19:14.568Z,999.02
2023-01-13T12:24:15.242Z,999.03
2023-01-13T12:29:15.950Z,998.95
2023-01-13T12:34:16.600Z,999.02
2023-01-13T12:39:17.294Z,999.09
2023-01-13T12:44:18.086Z,999.12
2023-01-13T12:49:18.691Z,999.19
2023-01-13T12:54:19.411Z,999.30
2023-01-13T12:59:20.102Z,999.28
2023-01-13T13:04:20.797Z,999.24
2023-01-13T13:09:21.454Z,999.27
2023-01-13T13:14:22.119Z,999.35
2023-01-13T13:19:22.835Z,999.46
2023-01-13T13:24:23.527Z,999.43
2023-01-13T13:29:24.272Z,999.44
2023-01-13T13:34:25.008Z,999.56
2023-01-13T13:39:25.713Z,999.61
2023-01-13T13:44:26.570Z,999.65
2023-01-13T13:49:27.450Z,999.78
2023-01-13T13:54:28.151Z,999.74
2023-01-13T13:59:28.803Z,999.72
2023-01-13T14:04:29.662Z,999.73
2023-01-13T14:09:30.282Z,999.75
2023-01-13T14:14:30.955Z,999.73
2023-01-13T14:19:31.591Z,999.76
2023-01-13T14:24:32.312Z,999.77
2023-01-13T14:29:32.938Z,999.81
2023-01-13T14:34:33.612Z,999.82
2023-01-13T14:39:34.284Z,999.84
2023-01-13T14:44:34.987Z,999.75
2023-01-13T14:49:35.603Z,999.75
2023-01-13T14:54:36.329Z,999.76
2023-01-13T14:59:36.990Z,999.84
2023-01-13T15:04:37.701Z,999.91
2023-01-13T15:09:38.385Z,999.92
2023-01-13T15:14:39.102Z,999.91
2023-01-13T15:19:39.761Z,999.97
2023-01-13T15:24:40.472Z,1000.05
2023-01-13T15:29:41.131Z,999.99
2023-01-13T15:34:41.813Z,1000.00
2023-01-13T15:39:42.470Z,1000.10
2023-01-13T15:44:43.271Z,1000.12
2023-01-13T15:49:44.052Z,1000.15
2023-01-13T15:54:44.777Z,1000.11
2023-01-13T15:59:45.764Z,1000.14
2023-01-13T16:04:46.481Z,1000.19
2023-01-13T16:09:47.506Z,1000.22
2023-01-13T16:14:47.916Z,1000.28
2023-01-13T16:19:48.763Z,1000.39
2023-01-13T16:24:49.576Z,1000.43
2023-01-13T16:29:51.321Z,1000.55
2023-01-13T16:34:59.766Z,1000.73
2023-01-13T16:39:51.981Z,1000.65
2023-01-13T16:44:52.705Z,1000.66
2023-01-13T16:49:53.570Z,1000.75
2023-01-13T16:54:54.341Z,1000.82
2023-01-13T16:59:55.042Z,1000.88
2023-01-13T17:04:55.795Z,1000.95
2023-01-13T17:09:56.530Z,1001.02
2023-01-13T17:14:57.360Z,1001.08
2023-01-13T17:19:57.954Z,1001.11
2023-01-13T17:24:58.722Z,1001.16
2023-01-13T17:29:59.447Z,1001.23
2023-01-13T17:35:00.249Z,1001.23
2023-01-13T17:40:01.051Z,1001.42
2023-01-13T17:45:01.855Z,1001.45
2023-01-13T17:50:02.554Z,1001.55
2023-01-13T17:55:03.494Z,1001.58
2023-01-13T18:00:04.192Z,1001.53
2023-01-13T18:05:05.015Z,1001.53
2023-01-13T18:10:05.712Z,1001.55
2023-01-13T18:15:07.496Z,1001.63
2023-01-13T18:20:07.203Z,1001.64
2023-01-13T18:25:07.947Z,1001.65
2023-01-13T18:30:08.645Z,1001.82
2023-01-13T18:35:09.478Z,1001.71
2023-01-13T18:40:10.233Z,1001.72
2023-01-13T18:45:10.945Z,1001.83
2023-01-13T18:50:11.666Z,1001.83
2023-01-13T18:55:12.393Z,1001.89
2023-01-13T19:00:13.138Z,1001.95
2023-01-13T19:05:13.913Z,1002.07
2023-01-13T19:10:14.867Z,1002.07
2023-01-13T19:15:15.147Z,1002.09
2023-01-13T19:20:15.963Z,1002.10
2023-01-13T19:25:16.702Z,1002.21
2023-01-13T19:30:17.459Z,1002.25
2023-01-13T19:35:18.237Z,1002.34
2023-01-13T19:40:18.976Z,1002.38
2023-01-13T19:45:19.750Z,1002.45
2023-01-13T19:50:20.515Z,1002.46
2023-01-13T19:55:21.307Z,1002.60
2023-01-13T20:00:22.087Z,1002.62
2023-01-13T20:05:22.932Z,1002.74
2023-01-13T20:10:23.632Z,1002.84
2023-01-13T20:15:24.377Z,1002.81
2023-01-13T20:20:25.287Z,1002.86
2023-01-13T20:25:26.047Z,1002.94
2023-01-13T20:30:26.791Z,1003.03
2023-01-13T20:35:27.589Z,1003.18
2023-01-13T20:40:28.418Z,1003.16
2023-01-13T20:45:29.211Z,1003.11
2023-01-13T20:50:29.953Z,1003.19
2023-01-13T20:55:30.708Z,1003.07
2023-01-13T21:00:31.481Z,1003.16
2023-01-13T21:05:32.215Z,1003.27
2023-01-13T21:10:32.993Z,1003.22
2023-01-13T21:15:33.741Z,1003.29
2023-01-13T21:20:34.488Z,1003.31
2023-01-13T21:25:35.645Z,1003.30
2023-01-13T21:30:35.877Z,1003.43
2023-01-13T21:35:36.658Z,1003.47
2023-01-13T21:40:37.723Z,1003.53
2023-01-13T21:45:38.137Z,1003.51
2023-01-13T21:50:38.876Z,1003.56
2023-01-13T21:55:39.654Z,1003.55
2023-01-13T22:00:40.545Z,1003.60
2023-01-13T22:05:41.306Z,1003.67
2023-01-13T22:10:41.974Z,1003.58
2023-01-13T22:15:42.783Z,1003.72
2023-01-13T22:20:43.645Z,1003.83
2023-01-13T22:25:44.355Z,1003.85
2023-01-13T22:30:52.885Z,1003.96
2023-01-13T22:35:45.571Z,1004.04
2023-01-13T22:40:46.327Z,1004.13
2023-01-13T22:45:47.029Z,1004.24
2023-01-13T22:50:47.748Z,1004.19
2023-01-13T22:55:48.470Z,1004.27
2023-01-13T23:00:49.214Z,1004.35
2023-01-13T23:05:49.916Z,1004.41
2023-01-13T23:10:50.634Z,1004.37
2023-01-13T23:15:51.356Z,1004.43
2023-01-13T23:20:52.109Z,1004.49
2023-01-13T23:25:52.809Z,1004.44
2023-01-13T23:30:53.608Z,1004.48
2023-01-13T23:35:54.289Z,1004.47
2023-01-13T23:40:55.027Z,1004.56
2023-01-13T23:45:55.731Z,1004.63
2023-01-13T23:50:56.438Z,1004.54
2023-01-13T23:55:57.163Z,1004.67
